South Riding, Virginia
Current Conditions -  °F | °C
As of 5:52 AM on Thursday 23 Oct 2014 (Local Time) from KIAD Reporting Station
Broken Clouds Broken Clouds  
Wind Chill: 50°   Ceiling: 3800
Heat Index: 50°   Visibility: 10mi
Dew Point: 41°   Wind: 20mph
Humidity: 71%   Direction: 320°NW
Pressure: 29.91"   Gusts: 28mph
Location:  38.8963°N, 77.5216°W
Report Text: KIAD 230952Z 32017G24KT 10SM BKN038 BKN080 10/05 A2991 RMK AO2 SLP128 T01000050
Loading
Personal Weather Stations






























Interactive Weather Map
Tropical Storm Tracking
New forecast layout! Learn more

10-Day Weather Forecast

Advertisements
Track Severe Weather on mobile